Time;durP1;ratioP1;P1;durP2;ratioP2;P2;SDS_P1;SDS_P2;PMS_P1;PMS_P2;Temp;Humidity;BMP_temperature;BMP_pressure;BME280_temperature;BME280_humidity;BME280_pressure;Samples;Min_cycle;Max_cycle;Signal;HPM_P1;HPM_P2
2022/04/02 00:00:46;;;;;;;54.85;39.90;;;1.50;99.90;;;;;;5051891;28;20382;-58
2022/04/02 00:03:12;;;;;;;55.53;37.55;;;1.40;99.90;;;;;;5050321;28;20104;-57
2022/04/02 00:05:37;;;;;;;57.75;38.65;;;1.40;99.90;;;;;;5051705;28;20023;-58
2022/04/02 00:08:04;;;;;;;51.88;37.33;;;1.40;99.90;;;;;;5051377;28;20086;-56
2022/04/02 00:10:30;;;;;;;58.28;40.60;;;1.40;99.90;;;;;;5051116;28;20031;-57
2022/04/02 00:12:56;;;;;;;62.13;39.08;;;1.30;99.90;;;;;;5051418;28;20100;-58
2022/04/02 00:15:22;;;;;;;60.42;40.00;;;1.30;99.90;;;;;;5051124;28;20079;-59
2022/04/02 00:17:48;;;;;;;54.85;37.95;;;1.30;99.90;;;;;;5050652;28;20017;-58
2022/04/02 00:20:14;;;;;;;56.85;40.20;;;1.30;99.90;;;;;;5051548;28;20757;-56
2022/04/02 00:23:35;;;;;;;63.20;40.95;;;1.30;99.90;;;;;;5051493;28;20033;-55
2022/04/02 00:25:25;;;;;;;53.55;38.15;;;1.20;99.90;;;;;;5051382;28;20399;-58
2022/04/02 00:27:50;;;;;;;55.78;37.22;;;1.20;99.90;;;;;;5050915;28;20087;-56
2022/04/02 00:30:16;;;;;;;54.20;37.58;;;1.20;99.90;;;;;;5050857;28;20039;-58
2022/04/02 00:32:42;;;;;;;52.72;37.22;;;1.10;99.90;;;;;;5051560;28;20028;-57
2022/04/02 00:35:09;;;;;;;52.83;35.65;;;1.10;99.90;;;;;;5049386;28;20033;-54
2022/04/02 00:37:34;;;;;;;50.83;34.92;;;1.00;99.90;;;;;;5050987;28;20506;-58
2022/04/02 00:40:00;;;;;;;60.10;39.88;;;0.90;99.90;;;;;;5050999;28;20100;-58
2022/04/02 00:42:26;;;;;;;62.08;38.95;;;0.90;99.90;;;;;;5051429;28;20392;-57
2022/04/02 00:44:52;;;;;;;58.45;39.78;;;0.90;99.90;;;;;;5051172;28;20033;-58
2022/04/02 00:47:20;;;;;;;54.67;38.50;;;1.00;99.90;;;;;;5049831;28;20154;-58
2022/04/02 00:49:46;;;;;;;55.83;38.33;;;1.00;99.90;;;;;;5051243;28;20029;-57
2022/04/02 00:52:13;;;;;;;64.65;39.72;;;1.00;99.90;;;;;;5051132;28;20063;-58
2022/04/02 00:54:40;;;;;;;57.70;39.92;;;0.90;99.90;;;;;;5051207;28;20025;-55
2022/04/02 00:57:06;;;;;;;56.17;38.78;;;0.90;99.90;;;;;;5050494;28;20036;-58
2022/04/02 00:59:32;;;;;;;57.13;39.88;;;1.00;99.90;;;;;;5050688;28;20480;-57
2022/04/02 01:01:57;;;;;;;58.20;38.97;;;0.90;99.90;;;;;;5050635;28;20025;-56
2022/04/02 01:04:23;;;;;;;55.60;38.25;;;0.90;99.90;;;;;;5051852;28;20040;-57
2022/04/02 01:06:51;;;;;;;58.35;39.08;;;0.90;99.90;;;;;;5053214;28;20044;-58
2022/04/02 01:09:17;;;;;;;58.67;40.33;;;0.90;99.90;;;;;;5055032;28;20017;-56
2022/04/02 01:11:44;;;;;;;55.65;36.22;;;0.90;99.90;;;;;;5054390;28;20029;-55
2022/04/02 01:14:13;;;;;;;51.50;36.20;;;1.00;99.90;;;;;;5054255;28;20031;-56
2022/04/02 01:16:38;;;;;;;47.78;32.97;;;1.00;99.90;;;;;;5054253;28;20381;-58
2022/04/02 01:19:05;;;;;;;49.75;35.80;;;0.90;99.90;;;;;;5054102;28;20071;-58
2022/04/02 01:21:32;;;;;;;48.83;33.63;;;0.90;99.90;;;;;;5054214;28;20053;-58
2022/04/02 01:23:58;;;;;;;53.45;36.60;;;1.00;99.90;;;;;;5054225;28;20021;-54
2022/04/02 01:26:25;;;;;;;50.50;35.35;;;0.90;99.90;;;;;;5053480;28;20033;-57
2022/04/02 01:28:54;;;;;;;47.83;35.03;;;0.90;99.90;;;;;;5053991;28;20024;-56
2022/04/02 01:31:21;;;;;;;46.58;32.92;;;0.80;99.90;;;;;;5054201;28;20048;-58
2022/04/02 01:33:48;;;;;;;49.05;34.15;;;0.80;99.90;;;;;;5054337;28;20535;-57
2022/04/02 01:36:14;;;;;;;50.33;36.28;;;0.80;99.90;;;;;;5054411;28;20361;-57
2022/04/02 01:38:40;;;;;;;54.20;36.00;;;0.80;99.90;;;;;;5054331;28;20025;-56
2022/04/02 01:41:06;;;;;;;52.13;35.97;;;0.90;99.90;;;;;;5054167;28;20083;-58
2022/04/02 01:43:33;;;;;;;52.00;36.10;;;0.90;99.90;;;;;;5054090;28;20041;-56
2022/04/02 01:45:59;;;;;;;49.80;34.40;;;0.90;99.90;;;;;;5053638;28;20029;-57
2022/04/02 01:48:25;;;;;;;54.65;33.50;;;0.80;99.90;;;;;;5054157;28;20108;-54
2022/04/02 01:50:51;;;;;;;50.40;35.92;;;0.90;99.90;;;;;;5053647;28;20510;-57
2022/04/02 01:53:19;;;;;;;51.30;35.08;;;0.80;99.90;;;;;;5053673;28;20680;-55
2022/04/02 01:55:45;;;;;;;51.45;35.67;;;0.90;99.90;;;;;;5054101;28;20025;-58
2022/04/02 01:58:11;;;;;;;49.88;35.97;;;0.90;99.90;;;;;;5053009;28;20433;-56
2022/04/02 02:00:37;;;;;;;53.47;37.97;;;0.80;99.90;;;;;;5053518;28;20064;-57
2022/04/02 02:03:03;;;;;;;51.00;35.90;;;0.80;99.90;;;;;;5053251;28;20372;-57
2022/04/02 02:05:28;;;;;;;48.85;34.30;;;0.90;99.90;;;;;;5053632;28;20426;-58
2022/04/02 02:07:54;;;;;;;44.78;33.75;;;0.90;99.90;;;;;;5053332;28;20024;-57
2022/04/02 02:10:20;;;;;;;45.80;33.22;;;0.90;99.90;;;;;;5053754;28;20049;-56
2022/04/02 02:12:46;;;;;;;49.17;34.03;;;0.90;99.90;;;;;;5052877;28;20456;-57
2022/04/02 02:15:18;;;;;;;46.65;33.40;;;0.90;99.90;;;;;;5053436;28;20040;-57
2022/04/02 02:17:48;;;;;;;45.35;32.42;;;0.90;99.90;;;;;;5051230;28;20033;-57
2022/04/02 02:20:15;;;;;;;53.90;33.50;;;0.80;99.90;;;;;;5053036;28;20025;-57
2022/04/02 02:22:42;;;;;;;48.58;32.05;;;0.80;99.90;;;;;;5053879;28;20075;-58
2022/04/02 02:25:09;;;;;;;49.78;32.22;;;0.80;99.90;;;;;;5053656;28;20017;-58
2022/04/02 02:27:36;;;;;;;46.38;33.28;;;0.80;99.90;;;;;;5053360;28;20033;-58
2022/04/02 02:30:03;;;;;;;45.45;30.88;;;0.80;99.90;;;;;;5052649;28;20060;-58
2022/04/02 02:32:31;;;;;;;43.65;32.85;;;0.80;99.90;;;;;;5053688;28;20071;-55
2022/04/02 02:37:42;;;;;;;48.58;31.08;;;0.80;99.90;;;;;;5053577;28;20063;-57
2022/04/02 02:40:09;;;;;;;46.65;33.60;;;0.80;99.90;;;;;;5035629;28;20025;-58
2022/04/02 02:42:34;;;;;;;46.05;32.47;;;0.80;99.90;;;;;;5053432;28;20101;-58
2022/04/02 02:45:00;;;;;;;41.47;29.05;;;0.80;99.90;;;;;;5053418;28;20525;-57
2022/04/02 02:47:26;;;;;;;45.65;31.65;;;0.80;99.90;;;;;;5053414;28;20103;-55
2022/04/02 02:49:51;;;;;;;47.03;33.78;;;0.80;99.90;;;;;;5053226;28;20056;-57
2022/04/02 02:52:17;;;;;;;44.55;32.58;;;0.80;99.90;;;;;;5053398;28;20029;-58
2022/04/02 02:54:43;;;;;;;48.47;30.35;;;0.80;99.90;;;;;;5053304;28;20044;-58
2022/04/02 02:57:08;;;;;;;39.53;29.25;;;0.80;99.90;;;;;;5050576;28;20029;-56
2022/04/02 02:59:35;;;;;;;43.38;29.02;;;0.80;99.90;;;;;;5052342;28;20381;-58
2022/04/02 03:02:01;;;;;;;43.63;29.33;;;0.70;99.90;;;;;;5051881;28;20399;-58
2022/04/02 03:04:26;;;;;;;42.55;29.98;;;0.70;99.90;;;;;;5052287;28;20043;-57
2022/04/02 03:06:52;;;;;;;41.55;29.95;;;0.70;99.90;;;;;;5052668;28;20033;-58
2022/04/02 03:09:18;;;;;;;45.42;29.40;;;0.70;99.90;;;;;;5052591;28;20476;-57
2022/04/02 03:11:43;;;;;;;44.08;27.98;;;0.70;99.90;;;;;;5052769;28;20029;-58
2022/04/02 03:14:09;;;;;;;49.25;32.83;;;0.70;99.90;;;;;;5052600;28;20025;-58
2022/04/02 03:16:35;;;;;;;43.10;30.20;;;0.70;99.90;;;;;;5052741;28;20060;-58
2022/04/02 03:19:02;;;;;;;43.30;31.33;;;0.60;99.90;;;;;;5052553;28;20095;-58
2022/04/02 03:21:31;;;;;;;47.40;31.25;;;0.60;99.90;;;;;;5052626;28;20330;-58
2022/04/02 03:23:57;;;;;;;48.47;29.08;;;0.60;99.90;;;;;;5052453;28;20032;-57
2022/04/02 03:26:24;;;;;;;69.47;43.47;;;0.70;99.90;;;;;;5052603;28;20392;-57
2022/04/02 03:28:49;;;;;;;112.70;60.35;;;0.60;99.90;;;;;;5051999;28;20033;-57
2022/04/02 03:31:15;;;;;;;62.40;38.13;;;0.60;99.90;;;;;;5052318;28;20066;-57
2022/04/02 03:33:41;;;;;;;54.30;40.63;;;0.60;99.90;;;;;;5052581;28;20054;-58
2022/04/02 03:36:06;;;;;;;51.10;33.60;;;0.60;99.90;;;;;;5052070;28;20113;-57
2022/04/02 03:38:33;;;;;;;52.95;31.30;;;0.60;99.90;;;;;;5052404;28;20415;-57
2022/04/02 03:40:58;;;;;;;46.78;31.13;;;0.60;99.90;;;;;;5052228;28;20017;-57
2022/04/02 03:43:24;;;;;;;44.00;28.60;;;0.60;99.90;;;;;;5052069;28;20023;-56
2022/04/02 03:45:50;;;;;;;45.70;28.92;;;0.60;99.90;;;;;;5051002;28;20017;-57
2022/04/02 03:48:15;;;;;;;46.60;26.83;;;0.60;99.90;;;;;;5050966;28;20032;-55
2022/04/02 03:50:41;;;;;;;45.60;25.92;;;0.50;99.90;;;;;;5051050;28;20080;-58
2022/04/02 03:53:07;;;;;;;41.50;27.00;;;0.50;99.90;;;;;;5050737;28;20021;-58
2022/04/02 03:55:32;;;;;;;36.33;26.77;;;0.50;99.90;;;;;;5050771;28;20029;-55
2022/04/02 03:57:58;;;;;;;38.88;26.58;;;0.40;99.90;;;;;;5051359;28;20029;-53
2022/04/02 04:00:24;;;;;;;43.15;25.88;;;0.50;99.90;;;;;;5049778;28;20079;-56
2022/04/02 04:02:50;;;;;;;43.35;26.52;;;0.40;99.90;;;;;;5050861;28;20530;-63
2022/04/02 04:05:15;;;;;;;42.55;25.73;;;0.40;99.90;;;;;;5051017;28;20024;-57
2022/04/02 04:07:41;;;;;;;47.80;26.55;;;0.40;99.90;;;;;;5051097;28;20029;-56
2022/04/02 04:10:08;;;;;;;53.85;26.15;;;0.40;99.90;;;;;;5051426;28;20041;-55
2022/04/02 04:12:34;;;;;;;45.50;26.42;;;0.40;99.90;;;;;;5051965;28;20036;-56
2022/04/02 04:14:59;;;;;;;43.83;25.88;;;0.40;99.90;;;;;;5051647;28;20392;-57
2022/04/02 04:17:25;;;;;;;49.60;26.42;;;0.40;99.90;;;;;;5051693;28;20040;-57
2022/04/02 04:19:52;;;;;;;48.05;27.05;;;0.40;99.90;;;;;;5051484;28;20041;-54
2022/04/02 04:22:18;;;;;;;44.08;26.50;;;0.40;99.90;;;;;;5051838;28;20503;-58
2022/04/02 04:24:44;;;;;;;44.40;26.30;;;0.40;99.90;;;;;;5051768;28;20107;-58
2022/04/02 04:27:09;;;;;;;43.17;24.88;;;0.40;99.90;;;;;;5051549;28;20117;-58
2022/04/02 04:29:36;;;;;;;55.47;27.85;;;0.40;99.90;;;;;;5051639;28;20108;-56
2022/04/02 04:32:02;;;;;;;42.40;24.85;;;0.50;99.90;;;;;;5051206;28;20095;-57
2022/04/02 04:34:28;;;;;;;44.63;25.25;;;0.50;99.90;;;;;;5051401;28;20033;-57
2022/04/02 04:36:53;;;;;;;40.30;24.85;;;0.40;99.90;;;;;;5051331;28;20768;-57
2022/04/02 04:39:19;;;;;;;39.45;25.48;;;0.50;99.90;;;;;;5050662;28;20461;-55
2022/04/02 04:41:45;;;;;;;47.25;24.63;;;0.50;99.90;;;;;;5051519;28;20040;-58
2022/04/02 04:44:10;;;;;;;46.03;26.13;;;0.40;99.90;;;;;;5051275;28;20029;-57
2022/04/02 04:46:36;;;;;;;42.30;25.70;;;0.40;99.90;;;;;;5051399;28;20031;-57
2022/04/02 04:49:02;;;;;;;45.15;27.02;;;0.40;99.90;;;;;;5051102;28;20113;-54
2022/04/02 04:51:28;;;;;;;43.70;24.77;;;0.30;99.90;;;;;;5051340;28;20079;-58
2022/04/02 04:53:54;;;;;;;44.67;26.38;;;0.30;99.90;;;;;;5051077;28;20392;-58
2022/04/02 04:56:20;;;;;;;47.35;25.75;;;0.30;99.90;;;;;;5051167;28;20026;-58
2022/04/02 04:58:46;;;;;;;49.63;25.48;;;0.30;99.90;;;;;;5051146;28;20053;-58
2022/04/02 05:01:14;;;;;;;47.58;26.60;;;0.30;99.90;;;;;;5051098;28;20028;-56
2022/04/02 05:03:40;;;;;;;44.65;24.48;;;0.30;99.90;;;;;;5051179;28;20053;-58
2022/04/02 05:06:09;;;;;;;37.28;23.60;;;0.30;99.90;;;;;;5051094;28;20049;-57
2022/04/02 05:08:35;;;;;;;44.13;26.17;;;0.30;99.90;;;;;;5051086;28;20024;-57
2022/04/02 05:11:01;;;;;;;41.10;26.33;;;0.30;99.90;;;;;;5051035;28;20484;-58
2022/04/02 05:13:28;;;;;;;53.20;27.10;;;0.30;99.90;;;;;;5051145;28;20506;-58
2022/04/02 05:15:54;;;;;;;37.50;22.30;;;0.30;99.90;;;;;;5050922;28;20045;-58
2022/04/02 05:18:20;;;;;;;40.00;23.17;;;0.40;99.90;;;;;;5051121;28;20021;-58
2022/04/02 05:20:46;;;;;;;37.72;24.05;;;0.40;99.90;;;;;;5050966;28;20036;-56
2022/04/02 05:23:11;;;;;;;38.10;21.27;;;0.40;99.90;;;;;;5050869;28;20100;-58
2022/04/02 05:25:38;;;;;;;38.10;20.30;;;0.40;99.90;;;;;;5050829;28;20063;-56
2022/04/02 05:28:05;;;;;;;33.15;21.40;;;0.50;99.90;;;;;;5050544;28;20025;-58
2022/04/02 05:30:37;;;;;;;31.10;20.55;;;0.50;99.90;;;;;;5050837;28;20049;-58
2022/04/02 05:33:04;;;;;;;42.93;21.73;;;0.50;99.90;;;;;;5050951;28;20028;-55
2022/04/02 05:35:29;;;;;;;31.90;20.42;;;0.50;99.90;;;;;;5050771;28;20268;-59
2022/04/02 05:37:55;;;;;;;41.72;21.58;;;0.50;99.90;;;;;;5050576;28;20040;-57
2022/04/02 05:40:21;;;;;;;35.22;22.52;;;0.60;99.90;;;;;;5050466;28;20036;-58
2022/04/02 05:42:47;;;;;;;38.33;21.40;;;0.70;99.90;;;;;;5050248;28;20163;-58
2022/04/02 05:45:14;;;;;;;35.70;20.40;;;0.70;99.90;;;;;;5050219;28;20033;-57
2022/04/02 05:47:52;;;;;;;46.80;22.23;;;0.80;99.90;;;;;;5050729;28;20025;-57
2022/04/02 05:50:19;;;;;;;34.08;20.63;;;0.80;99.90;;;;;;5050828;28;20029;-56
2022/04/02 05:52:45;;;;;;;36.20;21.25;;;0.80;99.90;;;;;;5053999;28;20017;-59
2022/04/02 05:55:12;;;;;;;38.30;20.85;;;0.90;99.90;;;;;;5054089;28;20025;-57
2022/04/02 05:57:39;;;;;;;43.33;21.15;;;0.90;99.90;;;;;;5054052;28;20357;-58
2022/04/02 06:00:07;;;;;;;32.42;19.38;;;1.00;99.90;;;;;;5055509;28;20017;-58
2022/04/02 06:02:33;;;;;;;34.53;18.95;;;1.10;99.90;;;;;;5054043;28;20017;-56
2022/04/02 06:05:00;;;;;;;34.33;17.98;;;1.10;99.90;;;;;;5053616;28;20029;-58
2022/04/02 06:07:25;;;;;;;39.38;20.10;;;1.10;99.90;;;;;;5054021;28;20025;-57
2022/04/02 06:09:51;;;;;;;27.13;18.15;;;1.10;99.90;;;;;;5053832;28;20025;-58
2022/04/02 06:12:16;;;;;;;32.78;18.38;;;1.20;99.90;;;;;;5054019;28;20052;-58
2022/04/02 06:14:42;;;;;;;41.17;18.00;;;1.30;99.90;;;;;;5053866;28;20372;-58
2022/04/02 06:17:08;;;;;;;33.10;19.52;;;1.30;99.90;;;;;;5053997;28;20693;-58
2022/04/02 06:19:33;;;;;;;39.25;19.48;;;1.30;99.90;;;;;;5053790;28;20098;-58
2022/04/02 06:21:59;;;;;;;30.80;19.45;;;1.40;99.90;;;;;;5053584;28;20521;-57
2022/04/02 06:24:25;;;;;;;34.10;18.20;;;1.40;99.90;;;;;;5053130;28;20384;-56
2022/04/02 06:26:50;;;;;;;37.35;20.38;;;1.40;99.90;;;;;;5053480;28;20029;-59
2022/04/02 06:29:16;;;;;;;34.35;18.00;;;1.40;99.90;;;;;;5053313;28;20037;-58
2022/04/02 06:31:42;;;;;;;26.88;18.67;;;1.40;99.90;;;;;;5051496;28;20049;-59
2022/04/02 06:34:08;;;;;;;40.47;18.73;;;1.40;99.90;;;;;;5053306;28;20028;-60
2022/04/02 06:36:33;;;;;;;32.90;18.30;;;1.40;99.90;;;;;;5053290;28;20524;-59
2022/04/02 06:38:59;;;;;;;38.70;19.40;;;1.50;99.90;;;;;;5053389;28;20468;-59
2022/04/02 06:41:25;;;;;;;27.77;19.08;;;1.50;99.90;;;;;;5053262;28;20496;-58
2022/04/02 06:43:50;;;;;;;34.45;20.92;;;1.50;99.90;;;;;;5052802;28;20435;-58
2022/04/02 06:46:16;;;;;;;30.40;18.92;;;1.50;99.90;;;;;;5051885;28;20029;-59
2022/04/02 06:48:42;;;;;;;41.20;19.60;;;1.50;99.90;;;;;;5053061;28;20078;-60
2022/04/02 06:51:07;;;;;;;30.40;18.42;;;1.50;99.90;;;;;;5052782;28;20037;-59
2022/04/02 06:53:34;;;;;;;29.92;18.75;;;1.50;99.90;;;;;;5052155;28;20029;-58
2022/04/02 06:56:00;;;;;;;45.95;19.52;;;1.60;99.90;;;;;;5052687;28;20032;-59
2022/04/02 06:58:28;;;;;;;35.53;18.98;;;1.70;99.90;;;;;;5052696;28;20017;-59
2022/04/02 07:01:11;;;;;;;32.80;19.17;;;1.70;99.90;;;;;;5052781;28;20023;-59
2022/04/02 07:03:37;;;;;;;33.88;19.02;;;1.80;99.90;;;;;;5052227;28;20074;-59
2022/04/02 07:06:03;;;;;;;40.67;20.23;;;1.80;99.90;;;;;;5052039;28;20033;-59
2022/04/02 07:08:29;;;;;;;35.83;21.38;;;1.80;99.90;;;;;;5051597;28;20025;-59
2022/04/02 07:10:55;;;;;;;34.80;20.08;;;1.90;99.90;;;;;;5051572;28;20024;-59
2022/04/02 07:13:21;;;;;;;41.20;18.65;;;2.00;99.90;;;;;;5051753;28;20110;-59
2022/04/02 07:15:46;;;;;;;34.40;19.60;;;2.00;99.90;;;;;;5051679;28;20178;-59
2022/04/02 07:18:12;;;;;;;31.20;18.63;;;2.10;99.90;;;;;;5050020;28;20037;-59
2022/04/02 07:20:39;;;;;;;33.10;18.63;;;2.20;99.90;;;;;;5051555;28;20021;-61
2022/04/02 07:23:08;;;;;;;35.28;19.52;;;2.20;99.90;;;;;;5051531;28;20017;-59
2022/04/02 07:25:40;;;;;;;28.02;18.30;;;2.20;99.90;;;;;;5051328;28;20353;-59
2022/04/02 07:28:07;;;;;;;25.45;17.33;;;2.20;99.90;;;;;;5051877;28;20155;-59
2022/04/02 07:30:34;;;;;;;29.02;17.85;;;2.30;99.90;;;;;;5051983;28;20041;-59
2022/04/02 07:33:01;;;;;;;29.00;17.90;;;2.30;99.90;;;;;;5052314;28;20078;-59
2022/04/02 07:35:34;;;;;;;30.65;17.17;;;2.40;99.90;;;;;;5052457;28;20021;-60
2022/04/02 07:38:16;;;;;;;29.02;16.63;;;2.60;99.90;;;;;;5052164;28;20646;-60
2022/04/02 07:40:48;;;;;;;51.22;24.50;;;2.60;99.90;;;;;;5052461;28;20017;-60
2022/04/02 07:43:26;;;;;;;26.70;16.00;;;2.60;99.90;;;;;;5052327;28;20036;-59
2022/04/02 07:46:04;;;;;;;18.83;13.55;;;2.60;99.90;;;;;;5052138;28;20524;-60
2022/04/02 07:48:32;;;;;;;36.55;17.13;;;2.60;99.90;;;;;;5052119;28;20083;-60
2022/04/02 07:51:01;;;;;;;24.50;14.32;;;2.70;99.90;;;;;;5052025;28;20382;-60
2022/04/02 07:53:34;;;;;;;33.92;15.25;;;2.60;99.90;;;;;;5052287;28;20029;-59
2022/04/02 07:56:04;;;;;;;26.25;15.68;;;2.60;99.90;;;;;;5052046;28;20044;-60
2022/04/02 07:58:34;;;;;;;25.52;14.98;;;3.00;99.90;;;;;;5052184;28;20044;-60
2022/04/02 08:01:04;;;;;;;30.50;16.08;;;3.00;99.90;;;;;;5051573;28;20021;-60
2022/04/02 08:03:31;;;;;;;26.40;15.30;;;3.00;99.90;;;;;;5051924;28;20045;-60
2022/04/02 08:05:57;;;;;;;24.98;15.95;;;3.40;99.90;;;;;;5051841;28;20032;-60
2022/04/02 08:08:25;;;;;;;30.85;19.42;;;3.20;99.90;;;;;;5062939;28;20028;-60
2022/04/02 08:10:52;;;;;;;29.48;17.30;;;3.30;99.90;;;;;;5070009;28;20495;-60
2022/04/02 08:13:20;;;;;;;28.65;19.00;;;3.30;99.90;;;;;;5059706;28;20032;-60
2022/04/02 08:15:46;;;;;;;22.20;15.90;;;3.20;99.90;;;;;;5040702;28;20108;-60
2022/04/02 08:18:16;;;;;;;26.58;16.35;;;3.10;99.90;;;;;;5039868;28;20056;-60
2022/04/02 08:20:43;;;;;;;25.35;16.77;;;3.10;99.90;;;;;;5040357;28;20037;-60
2022/04/02 08:23:09;;;;;;;27.13;14.70;;;3.10;99.90;;;;;;5040768;28;20016;-60
2022/04/02 08:25:38;;;;;;;28.90;16.65;;;3.20;99.90;;;;;;5039596;28;20492;-60
2022/04/02 08:28:09;;;;;;;22.00;13.80;;;3.20;99.90;;;;;;5039586;28;20037;-60
2022/04/02 08:30:44;;;;;;;24.77;13.65;;;3.20;99.90;;;;;;5038721;28;20500;-60
2022/04/02 08:33:15;;;;;;;30.80;20.63;;;3.30;99.90;;;;;;5040809;28;20032;-60
2022/04/02 08:36:11;;;;;;;42.42;23.38;;;3.40;99.90;;;;;;5041071;28;20036;-60
2022/04/02 08:38:50;;;;;;;31.15;16.33;;;3.60;99.90;;;;;;5059619;28;20036;-60
2022/04/02 08:42:01;;;;;;;22.38;14.80;;;3.60;99.90;;;;;;5058151;28;20105;-61
2022/04/02 08:45:03;;;;;;;40.88;27.60;;;3.30;99.90;;;;;;5058994;28;20032;-61
2022/04/02 08:47:29;;;;;;;32.78;15.32;;;3.30;99.90;;;;;;5053906;28;20017;-61
2022/04/02 08:50:15;;;;;;;22.50;15.80;;;3.30;99.90;;;;;;5039095;28;20706;-60
2022/04/02 08:52:55;;;;;;;30.73;19.23;;;3.20;99.90;;;;;;5060087;28;20029;-60
2022/04/02 08:55:36;;;;;;;37.10;18.98;;;3.30;99.90;;;;;;5060220;28;20025;-61
2022/04/02 08:58:14;;;;;;;33.40;17.35;;;3.30;99.90;;;;;;5060129;28;20387;-60
2022/04/02 09:00:50;;;;;;;26.92;16.70;;;3.30;99.90;;;;;;5060357;28;20378;-60
2022/04/02 09:03:36;;;;;;;30.40;15.55;;;3.10;99.90;;;;;;5058619;28;20021;-60
2022/04/02 09:06:21;;;;;;;31.73;18.17;;;3.00;99.90;;;;;;5041540;28;20026;-60
2022/04/02 09:09:02;;;;;;;32.30;17.70;;;3.00;99.90;;;;;;5052067;28;20020;-60
2022/04/02 09:12:02;;;;;;;33.35;16.08;;;3.10;99.90;;;;;;5038882;28;20025;-60
2022/04/02 09:14:48;;;;;;;29.83;14.25;;;3.10;99.90;;;;;;5040206;28;20021;-59
2022/04/02 09:17:47;;;;;;;26.73;14.93;;;3.10;99.90;;;;;;5040066;28;20544;-60
2022/04/02 09:20:19;;;;;;;25.23;17.38;;;3.10;99.90;;;;;;5040128;28;20037;-60
2022/04/02 09:23:15;;;;;;;24.90;16.52;;;3.20;99.90;;;;;;5040301;28;20075;-61
2022/04/02 09:26:00;;;;;;;28.27;15.23;;;3.10;99.90;;;;;;5041244;28;20021;-60
2022/04/02 09:28:42;;;;;;;28.42;14.77;;;3.30;99.90;;;;;;5043194;28;20063;-61
2022/04/02 09:31:45;;;;;;;25.23;14.15;;;3.40;99.90;;;;;;5044246;28;20095;-59
2022/04/02 09:34:29;;;;;;;31.67;14.50;;;3.30;99.90;;;;;;5043774;28;20029;-60
2022/04/02 09:36:59;;;;;;;25.13;15.02;;;3.20;99.90;;;;;;5043566;28;20055;-59
2022/04/02 09:39:42;;;;;;;24.90;14.10;;;3.20;99.90;;;;;;5043946;28;20472;-59
2022/04/02 09:42:41;;;;;;;37.42;16.55;;;3.30;99.90;;;;;;5043355;28;20118;-60
2022/04/02 09:45:16;;;;;;;27.35;14.70;;;3.30;99.90;;;;;;5043483;28;20037;-59
2022/04/02 09:47:51;;;;;;;23.52;15.00;;;3.30;99.90;;;;;;5044841;28;20090;-60
2022/04/02 09:50:21;;;;;;;35.70;15.88;;;3.40;99.90;;;;;;5043448;28;20439;-59
2022/04/02 09:52:50;;;;;;;33.22;15.27;;;3.20;99.90;;;;;;5043771;28;20036;-60
2022/04/02 09:55:20;;;;;;;31.20;15.38;;;3.30;99.90;;;;;;5043123;28;20037;-59
2022/04/02 09:58:13;;;;;;;36.25;14.98;;;3.20;99.90;;;;;;5043000;28;20041;-59
2022/04/02 10:00:57;;;;;;;23.08;14.93;;;3.20;99.90;;;;;;5043617;28;20021;-60
2022/04/02 10:03:38;;;;;;;;;;;3.20;99.90;;;;;;5043421;28;20033;-60
2022/04/02 10:06:23;;;;;;;21.67;13.43;;;3.20;99.90;;;;;;5042872;28;20043;-60
2022/04/02 10:09:12;;;;;;;59.85;38.47;;;3.20;99.90;;;;;;5043346;28;20067;-58
2022/04/02 10:11:54;;;;;;;83.43;55.22;;;3.00;99.90;;;;;;5043630;28;20086;-59
2022/04/02 10:14:30;;;;;;;214.95;131.65;;;3.00;99.90;;;;;;5043603;28;20036;-59
2022/04/02 10:17:02;;;;;;;307.77;169.82;;;3.00;99.90;;;;;;5042722;28;20033;-60
2022/04/02 10:19:33;;;;;;;449.02;233.88;;;3.00;99.90;;;;;;5043065;28;20040;-59
2022/04/02 10:22:04;;;;;;;223.18;111.55;;;3.00;99.90;;;;;;5046743;28;20151;-60
2022/04/02 10:24:47;;;;;;;234.23;114.85;;;3.00;99.90;;;;;;5053087;28;20569;-59
2022/04/02 10:27:34;;;;;;;370.55;176.48;;;3.00;99.90;;;;;;5053358;28;20060;-60
2022/04/02 10:30:00;;;;;;;207.70;95.25;;;3.20;99.90;;;;;;5053479;28;20029;-60
2022/04/02 10:32:50;;;;;;;189.23;90.03;;;3.30;99.90;;;;;;5053498;28;20476;-59
2022/04/02 10:35:16;;;;;;;116.53;58.28;;;3.60;99.90;;;;;;5052452;28;20064;-60
2022/04/02 10:38:03;;;;;;;274.00;122.38;;;3.60;99.90;;;;;;5049334;28;20060;-60
2022/04/02 10:40:30;;;;;;;55.00;28.48;;;3.40;99.90;;;;;;5044041;28;20024;-60
2022/04/02 10:43:06;;;;;;;47.15;23.55;;;3.40;99.90;;;;;;5055419;28;20029;-60
2022/04/02 10:45:37;;;;;;;36.72;16.38;;;3.50;99.90;;;;;;5062643;28;20028;-60
2022/04/02 10:48:12;;;;;;;35.78;16.88;;;3.50;99.90;;;;;;5061693;28;20029;-60
2022/04/02 10:50:40;;;;;;;28.35;17.27;;;3.50;99.90;;;;;;5062542;28;20037;-60
2022/04/02 10:53:10;;;;;;;26.50;16.23;;;3.60;99.90;;;;;;5056315;28;20037;-60
2022/04/02 10:55:48;;;;;;;29.35;14.43;;;3.70;99.90;;;;;;5042129;28;20392;-60
2022/04/02 10:58:14;;;;;;;21.67;14.88;;;3.60;99.90;;;;;;5050953;28;20111;-60
2022/04/02 11:00:47;;;;;;;27.25;13.63;;;3.40;99.90;;;;;;5053009;28;20029;-60
2022/04/02 11:03:40;;;;;;;25.50;13.55;;;3.30;99.90;;;;;;5052816;28;20032;-60
2022/04/02 11:06:09;;;;;;;18.80;14.63;;;3.30;99.90;;;;;;5052639;28;20017;-59
2022/04/02 11:08:35;;;;;;;32.60;14.13;;;3.20;99.90;;;;;;5052853;28;20032;-59
2022/04/02 11:11:23;;;;;;;26.88;14.10;;;3.10;99.90;;;;;;5052467;28;20017;-59
2022/04/02 11:14:00;;;;;;;25.90;13.85;;;3.00;99.90;;;;;;5052347;28;20021;-59
2022/04/02 11:16:40;;;;;;;29.00;14.68;;;2.90;99.90;;;;;;5052547;28;20025;-59
2022/04/02 11:22:16;;;;;;;27.95;13.85;;;3.20;99.90;;;;;;5052622;28;20519;-59
2022/04/02 11:25:03;;;;;;;34.00;13.70;;;3.20;99.90;;;;;;5052177;28;20021;-59
2022/04/02 11:27:30;;;;;;;36.38;15.40;;;3.10;99.90;;;;;;5051069;28;20484;-59
2022/04/02 11:30:07;;;;;;;24.70;12.85;;;3.20;99.90;;;;;;5052037;28;20035;-60
2022/04/02 11:32:48;;;;;;;23.80;13.40;;;3.50;99.90;;;;;;5052460;28;20029;-59
2022/04/02 11:35:22;;;;;;;19.15;12.23;;;3.70;99.90;;;;;;5052140;28;20024;-59
2022/04/02 11:37:56;;;;;;;27.23;13.68;;;3.50;99.90;;;;;;5040301;28;20068;-59
2022/04/02 11:40:29;;;;;;;30.88;12.38;;;3.40;99.90;;;;;;5030275;28;20028;-59
2022/04/02 11:43:00;;;;;;;19.75;12.35;;;3.50;99.90;;;;;;5032851;28;20029;-60
2022/04/02 11:45:26;;;;;;;27.63;12.05;;;3.60;99.90;;;;;;5028173;28;20040;-60
2022/04/02 11:48:07;;;;;;;21.05;12.77;;;3.70;99.90;;;;;;5028786;28;20029;-60
2022/04/02 11:50:34;;;;;;;25.85;14.00;;;3.90;99.90;;;;;;5025934;28;20423;-60
2022/04/02 11:53:00;;;;;;;29.63;12.45;;;3.90;99.90;;;;;;5027425;28;20032;-60
2022/04/02 11:55:27;;;;;;;22.65;12.63;;;4.10;99.90;;;;;;5032749;28;20040;-60
2022/04/02 11:57:56;;;;;;;35.13;14.95;;;4.30;99.90;;;;;;5031156;28;20047;-60
2022/04/02 12:00:26;;;;;;;26.15;14.30;;;4.40;99.90;;;;;;5023043;28;22677;-60
2022/04/02 12:02:52;;;;;;;26.55;13.48;;;4.70;99.90;;;;;;5030996;28;20052;-60
2022/04/02 12:05:20;;;;;;;25.27;11.93;;;4.70;99.90;;;;;;5026084;28;20035;-60
2022/04/02 12:07:48;;;;;;;24.85;11.35;;;4.70;99.90;;;;;;5048666;28;20384;-60
2022/04/02 12:10:21;;;;;;;22.55;12.35;;;5.00;99.90;;;;;;5027799;28;20032;-60
2022/04/02 12:12:48;;;;;;;23.75;9.98;;;5.30;99.90;;;;;;5041371;28;20036;-60
2022/04/02 12:15:15;;;;;;;32.10;11.35;;;5.40;99.90;;;;;;5035042;28;20041;-60
2022/04/02 12:17:52;;;;;;;25.60;15.65;;;5.40;99.90;;;;;;5032783;28;20625;-60
2022/04/02 12:20:30;;;;;;;69.22;43.00;;;5.50;99.90;;;;;;5032995;28;20029;-60
2022/04/02 12:23:25;;;;;;;48.97;26.80;;;5.70;99.90;;;;;;5032382;28;20082;-59
2022/04/02 12:25:56;;;;;;;20.92;14.45;;;5.40;99.90;;;;;;5034460;28;20045;-60
2022/04/02 12:28:22;;;;;;;20.02;11.88;;;5.20;99.90;;;;;;5032038;28;20087;-60
2022/04/02 12:30:51;;;;;;;21.42;9.55;;;5.00;99.90;;;;;;5033228;28;20064;-60
2022/04/02 12:33:22;;;;;;;19.92;11.57;;;4.50;99.90;;;;;;5030696;28;20029;-59
2022/04/02 12:36:07;;;;;;;25.05;12.48;;;4.50;99.90;;;;;;5039536;28;20033;-60
2022/04/02 12:38:35;;;;;;;19.13;11.27;;;4.50;99.90;;;;;;5038631;28;20040;-59
2022/04/02 12:41:02;;;;;;;20.83;11.40;;;4.60;99.90;;;;;;5039728;28;20047;-60
2022/04/02 12:43:29;;;;;;;24.75;8.88;;;4.60;99.90;;;;;;5038709;28;20079;-60
2022/04/02 12:45:56;;;;;;;20.77;10.77;;;4.70;99.90;;;;;;5043327;28;20021;-60
2022/04/02 12:48:24;;;;;;;29.67;9.38;;;4.80;99.90;;;;;;5038676;28;20041;-59
2022/04/02 12:51:01;;;;;;;18.42;9.95;;;4.60;99.90;;;;;;5035534;28;20035;-60
2022/04/02 12:53:27;;;;;;;18.67;10.80;;;4.60;99.90;;;;;;5039668;28;20630;-60
2022/04/02 12:55:53;;;;;;;17.73;11.70;;;4.70;99.90;;;;;;5041492;28;20114;-60